Time;durP1;ratioP1;P1;durP2;ratioP2;P2;SDS_P1;SDS_P2;PMS_P1;PMS_P2;Temp;Humidity;BMP_temperature;BMP_pressure;BME280_temperature;BME280_humidity;BME280_pressure;Samples;Min_cycle;Max_cycle;Signal;HPM_P1;HPM_P2
2023/05/13 00:00:58;;;;;;;10.77;7.05;;;;;;;-146.18;100.00;67994.34;10237271;28;20128;-69
2023/05/13 00:05:55;;;;;;;8.07;6.45;;;;;;;-146.18;100.00;67994.34;10221169;28;20045;-70
2023/05/13 00:10:52;;;;;;;10.32;7.22;;;;;;;-146.18;100.00;67994.34;10236877;28;20151;-70
2023/05/13 00:15:48;;;;;;;10.38;7.80;;;;;;;-146.18;100.00;67994.34;10236837;28;20123;-70
2023/05/13 00:20:45;;;;;;;9.20;7.38;;;;;;;-146.18;100.00;67994.34;10230628;28;20463;-70
2023/05/13 00:25:43;;;;;;;9.07;7.25;;;;;;;-146.18;100.00;67994.34;10218361;28;20128;-70
2023/05/13 00:30:44;;;;;;;9.70;6.80;;;;;;;-146.18;100.00;67994.34;10195220;28;20127;-70
2023/05/13 00:35:40;;;;;;;10.20;6.63;;;;;;;-146.18;100.00;67994.34;10213996;28;20072;-70
2023/05/13 00:40:38;;;;;;;12.32;7.30;;;;;;;-146.18;100.00;67994.34;10195999;28;20096;-70
2023/05/13 00:45:37;;;;;;;10.23;7.18;;;;;;;-146.18;100.00;67994.34;10215166;28;20076;-70
2023/05/13 00:50:34;;;;;;;14.00;7.20;;;;;;;-146.18;100.00;67994.34;10236522;28;20056;-70
2023/05/13 00:55:31;;;;;;;10.10;7.53;;;;;;;-146.18;100.00;67994.34;10227643;28;20499;-70
2023/05/13 01:00:30;;;;;;;10.85;6.90;;;;;;;-146.18;100.00;67994.34;10235964;28;20052;-70
2023/05/13 01:06:04;;;;;;;13.07;8.60;;;;;;;-146.18;100.00;67994.34;10221713;28;20049;-70
2023/05/13 01:11:04;;;;;;;13.45;8.48;;;;;;;-146.18;100.00;67994.34;10202699;28;20515;-70
2023/05/13 01:16:35;;;;;;;16.48;8.00;;;;;;;-146.18;100.00;67994.34;10218449;28;20056;-70
2023/05/13 01:21:35;;;;;;;12.05;8.73;;;;;;;-146.18;100.00;67994.34;10199533;28;20476;-70
2023/05/13 01:26:34;;;;;;;11.75;7.68;;;;;;;-146.18;100.00;67994.34;10211806;28;20073;-70
2023/05/13 01:31:31;;;;;;;11.70;8.25;;;;;;;-146.18;100.00;67994.34;10194191;28;20052;-70
2023/05/13 01:36:28;;;;;;;13.98;8.88;;;;;;;-146.18;100.00;67994.34;10204646;28;20061;-70
2023/05/13 01:41:25;;;;;;;13.73;8.55;;;;;;;-146.18;100.00;67994.34;10176677;28;20519;-70
2023/05/13 01:46:21;;;;;;;14.18;8.88;;;;;;;-146.18;100.00;67994.34;10204512;28;20136;-70
2023/05/13 01:51:18;;;;;;;15.60;9.77;;;;;;;-146.18;100.00;67994.34;10193762;28;20053;-70
2023/05/13 01:56:14;;;;;;;11.57;8.73;;;;;;;-146.18;100.00;67994.34;10193549;28;20588;-70
2023/05/13 02:01:11;;;;;;;13.60;8.73;;;;;;;-146.18;100.00;67994.34;10192946;28;20062;-70
2023/05/13 02:06:07;;;;;;;14.75;10.18;;;;;;;-146.18;100.00;67994.34;10192810;28;20274;-70
2023/05/13 02:11:04;;;;;;;13.48;9.70;;;;;;;-146.18;100.00;67994.34;10193144;28;20547;-70
2023/05/13 02:16:02;;;;;;;15.02;10.82;;;;;;;-146.18;100.00;67994.34;10216607;28;20124;-70
2023/05/13 02:20:58;;;;;;;10.52;8.88;;;;;;;-146.18;100.00;67994.34;10191823;28;20081;-70
2023/05/13 02:25:55;;;;;;;14.68;9.93;;;;;;;-146.18;100.00;67994.34;10215394;28;20041;-70
2023/05/13 02:30:51;;;;;;;15.05;10.07;;;;;;;-146.18;100.00;67994.34;10209278;28;20054;-70
2023/05/13 02:35:48;;;;;;;12.88;10.27;;;;;;;-146.18;100.00;67994.34;10214697;28;20494;-70
2023/05/13 02:40:44;;;;;;;12.93;10.45;;;;;;;-146.18;100.00;67994.34;10207320;28;20074;-70
2023/05/13 02:45:41;;;;;;;15.63;10.85;;;;;;;-146.18;100.00;67994.34;10212769;28;20044;-70
2023/05/13 02:50:39;;;;;;;13.25;10.38;;;;;;;-146.18;100.00;67994.34;10192634;28;20057;-70
2023/05/13 02:55:35;;;;;;;17.85;12.70;;;;;;;-146.18;100.00;67994.34;10205988;28;20137;-70
2023/05/13 03:00:32;;;;;;;14.85;12.20;;;;;;;-146.18;100.00;67994.34;10175096;28;20080;-70
2023/05/13 03:05:28;;;;;;;13.68;11.88;;;;;;;-146.18;100.00;67994.34;10200932;28;20496;-70
2023/05/13 03:10:25;;;;;;;15.57;11.23;;;;;;;-146.18;100.00;67994.34;10195326;28;20085;-70
2023/05/13 03:15:21;;;;;;;13.90;12.20;;;;;;;-146.18;100.00;67994.34;10218232;28;20081;-70
2023/05/13 03:20:18;;;;;;;16.35;13.30;;;;;;;-146.18;100.00;67994.34;10239973;28;20081;-70
2023/05/13 03:25:15;;;;;;;12.88;10.52;;;;;;;-146.18;100.00;67994.34;10223158;28;20128;-70
2023/05/13 03:30:14;;;;;;;17.23;12.07;;;;;;;-146.18;100.00;67994.34;10230867;28;20046;-70
2023/05/13 03:35:11;;;;;;;17.08;12.57;;;;;;;-146.18;100.00;67994.34;10215096;28;20419;-70
2023/05/13 03:40:08;;;;;;;14.98;11.43;;;;;;;-146.18;100.00;67994.34;10208246;28;20054;-70
2023/05/13 03:45:05;;;;;;;17.02;12.85;;;;;;;-146.18;100.00;67994.34;10214941;28;20140;-70
2023/05/13 03:50:01;;;;;;;17.48;13.93;;;;;;;-146.18;100.00;67994.34;10224433;28;20077;-70
2023/05/13 03:54:58;;;;;;;17.77;12.50;;;;;;;-146.18;100.00;67994.34;10199570;28;20092;-70
2023/05/13 03:59:54;;;;;;;13.88;11.30;;;;;;;-146.18;100.00;67994.34;10197789;28;20053;-70
2023/05/13 04:04:51;;;;;;;13.40;11.40;;;;;;;-146.18;100.00;67994.34;10211652;28;20042;-70
2023/05/13 04:09:47;;;;;;;15.45;11.80;;;;;;;-146.18;100.00;67994.34;10201605;28;20057;-70
2023/05/13 04:14:44;;;;;;;19.58;13.32;;;;;;;-146.18;100.00;67994.34;10210731;28;20132;-70
2023/05/13 04:19:40;;;;;;;15.38;13.05;;;;;;;-146.18;100.00;67994.34;10202234;28;20077;-70
2023/05/13 04:24:37;;;;;;;15.93;13.07;;;;;;;-146.18;100.00;67994.34;10196141;28;20065;-70
2023/05/13 04:29:33;;;;;;;18.92;12.88;;;;;;;-146.18;100.00;67994.34;10196290;28;20057;-70
2023/05/13 04:34:30;;;;;;;18.48;15.10;;;;;;;-146.18;100.00;67994.34;10207840;28;20454;-70
2023/05/13 04:39:26;;;;;;;20.88;16.45;;;;;;;-146.18;100.00;67994.34;10198197;28;20058;-70
2023/05/13 04:44:23;;;;;;;23.15;15.05;;;;;;;-146.18;100.00;67994.34;10197601;28;20050;-70
2023/05/13 04:49:19;;;;;;;15.10;13.43;;;;;;;-146.18;100.00;67994.34;10195430;28;20129;-70
2023/05/13 04:54:16;;;;;;;19.10;13.25;;;;;;;-146.18;100.00;67994.34;10205461;28;20081;-70
2023/05/13 04:59:13;;;;;;;20.35;12.90;;;;;;;-146.18;100.00;67994.34;10235433;28;20045;-70
2023/05/13 05:04:10;;;;;;;17.98;13.23;;;;;;;-146.18;100.00;67994.34;10217218;28;20554;-70
2023/05/13 05:09:06;;;;;;;16.00;12.65;;;;;;;-146.18;100.00;67994.34;10235288;28;20132;-70
2023/05/13 05:14:03;;;;;;;16.63;12.32;;;;;;;-146.18;100.00;67994.34;10214107;28;20144;-70
2023/05/13 05:18:59;;;;;;;16.25;12.18;;;;;;;-146.18;100.00;67994.34;10232368;28;20045;-69
2023/05/13 05:23:56;;;;;;;14.60;12.07;;;;;;;-146.18;100.00;67994.34;10201366;28;20538;-70
2023/05/13 05:28:52;;;;;;;14.45;12.95;;;;;;;-146.18;100.00;67994.34;10219975;28;20540;-70
2023/05/13 05:33:48;;;;;;;14.43;11.48;;;;;;;-146.18;100.00;67994.34;10199601;28;20069;-70
2023/05/13 05:38:46;;;;;;;20.55;11.35;;;;;;;-146.18;100.00;67994.34;10209284;28;20089;-71
2023/05/13 05:43:42;;;;;;;14.50;11.23;;;;;;;-146.18;100.00;67994.34;10199071;28;20721;-70
2023/05/13 05:48:39;;;;;;;12.00;10.77;;;;;;;-146.18;100.00;67994.34;10198024;28;20054;-71
2023/05/13 05:53:36;;;;;;;12.77;10.98;;;;;;;-146.18;100.00;67994.34;10197573;28;20041;-70
2023/05/13 05:58:33;;;;;;;15.65;11.23;;;;;;;-146.18;100.00;67994.34;10193680;28;20042;-70
2023/05/13 06:03:32;;;;;;;12.98;10.57;;;;;;;-146.18;100.00;67994.34;10196949;28;20531;-70
2023/05/13 06:08:29;;;;;;;13.70;10.95;;;;;;;-146.18;100.00;67994.34;10232925;28;20049;-70
2023/05/13 06:13:26;;;;;;;12.07;10.25;;;;;;;-146.18;100.00;67994.34;10205062;28;20081;-70
2023/05/13 06:18:22;;;;;;;11.02;9.90;;;;;;;-146.18;100.00;67994.34;10233119;28;20125;-71
2023/05/13 06:23:19;;;;;;;12.60;9.32;;;;;;;-146.18;100.00;67994.34;10229935;28;20050;-70
2023/05/13 06:28:16;;;;;;;12.20;9.25;;;;;;;-146.18;100.00;67994.34;10232594;28;20053;-71
2023/05/13 06:33:12;;;;;;;11.38;9.73;;;;;;;-146.18;100.00;67994.34;10214690;28;20060;-71
2023/05/13 06:38:09;;;;;;;9.80;8.88;;;;;;;-146.18;100.00;67994.34;10232118;28;20104;-70
2023/05/13 06:43:05;;;;;;;11.43;9.23;;;;;;;-146.18;100.00;67994.34;10202704;28;20495;-70
2023/05/13 06:48:02;;;;;;;9.75;8.75;;;;;;;-146.18;100.00;67994.34;10199729;28;20432;-70
2023/05/13 06:52:58;;;;;;;10.82;9.68;;;;;;;-146.18;100.00;67994.34;10200470;28;20054;-71
2023/05/13 06:57:55;;;;;;;10.63;9.00;;;;;;;-146.18;100.00;67994.34;10213410;28;20104;-71
2023/05/13 07:02:51;;;;;;;10.20;9.13;;;;;;;-146.18;100.00;67994.34;10200019;28;20133;-71
2023/05/13 07:07:52;;;;;;;10.20;9.05;;;;;;;-146.18;100.00;67994.34;10224307;28;20053;-71
2023/05/13 07:12:48;;;;;;;8.77;8.02;;;;;;;-146.18;100.00;67994.34;10199537;28;20087;-70
2023/05/13 07:17:45;;;;;;;13.88;9.90;;;;;;;-146.18;100.00;67994.34;10217626;28;20054;-71
2023/05/13 07:22:41;;;;;;;10.00;8.70;;;;;;;-146.18;100.00;67994.34;10199454;28;20058;-71
2023/05/13 07:27:38;;;;;;;9.60;8.55;;;;;;;-146.18;100.00;67994.34;10236640;28;20152;-71
2023/05/13 07:32:35;;;;;;;11.55;8.18;;;;;;;-146.18;100.00;67994.34;10234790;28;20453;-70
2023/05/13 07:37:32;;;;;;;10.93;8.85;;;;;;;-146.18;100.00;67994.34;10234998;28;20129;-70
2023/05/13 07:42:28;;;;;;;9.50;8.60;;;;;;;-146.18;100.00;67994.34;10228934;28;20451;-70
2023/05/13 07:47:27;;;;;;;8.80;7.90;;;;;;;-146.18;100.00;67994.34;10233628;28;20053;-70
2023/05/13 07:52:25;;;;;;;9.52;8.63;;;;;;;-146.18;100.00;67994.34;10215567;28;20141;-70
2023/05/13 07:57:21;;;;;;;10.38;7.75;;;;;;;-146.18;100.00;67994.34;10232560;28;20049;-70
2023/05/13 08:02:18;;;;;;;8.63;7.88;;;;;;;-146.18;100.00;67994.34;10200648;28;20083;-70
2023/05/13 08:07:14;;;;;;;13.93;7.93;;;;;;;-146.18;100.00;67994.34;10231502;28;20053;-71
2023/05/13 08:12:11;;;;;;;10.15;7.47;;;;;;;-146.18;100.00;67994.34;10195355;28;20049;-70
2023/05/13 08:17:07;;;;;;;8.57;7.72;;;;;;;-146.18;100.00;67994.34;10205227;28;20066;-70
2023/05/13 08:22:04;;;;;;;9.88;7.20;;;;;;;-146.18;100.00;67994.34;10196529;28;20049;-70
2023/05/13 08:27:01;;;;;;;8.00;7.18;;;;;;;-146.18;100.00;67994.34;10228759;28;20096;-71
2023/05/13 08:31:58;;;;;;;7.65;6.50;;;;;;;-146.18;100.00;67994.34;10214090;28;20137;-71
2023/05/13 08:36:56;;;;;;;9.52;7.68;;;;;;;-146.18;100.00;67994.34;10227661;28;20049;-70
2023/05/13 08:41:58;;;;;;;10.27;6.93;;;;;;;-146.18;100.00;67994.34;10212169;28;20053;-70
2023/05/13 08:47:07;;;;;;;11.80;7.00;;;;;;;-146.18;100.00;67994.34;10227217;28;20402;-71
2023/05/13 08:52:04;;;;;;;7.30;6.60;;;;;;;-146.18;100.00;67994.34;10198270;28;20479;-70
2023/05/13 08:57:01;;;;;;;8.98;7.07;;;;;;;-146.18;100.00;67994.34;10227675;28;20056;-70
2023/05/13 09:02:01;;;;;;;11.93;6.50;;;;;;;-146.18;100.00;67994.34;10197182;28;20053;-70
2023/05/13 09:06:58;;;;;;;7.78;6.70;;;;;;;-146.18;100.00;67994.34;10209025;28;20536;-71
2023/05/13 09:11:55;;;;;;;7.25;6.47;;;;;;;-146.18;100.00;67994.34;10177648;28;20519;-70
2023/05/13 09:16:55;;;;;;;7.38;6.72;;;;;;;-146.18;100.00;67994.34;10183306;28;20053;-69
2023/05/13 09:21:52;;;;;;;7.95;7.15;;;;;;;-146.18;100.00;67994.34;10194937;28;20116;-70
2023/05/13 09:26:50;;;;;;;8.63;7.03;;;;;;;-146.18;100.00;67994.34;10206124;28;20046;-71
2023/05/13 09:31:52;;;;;;;7.15;6.50;;;;;;;-146.18;100.00;67994.34;10193935;28;20054;-70
2023/05/13 09:37:04;;;;;;;7.78;6.88;;;;;;;-146.18;100.00;67994.34;10224398;28;20046;-71
2023/05/13 09:42:01;;;;;;;9.05;6.50;;;;;;;-146.18;100.00;67994.34;10234334;28;20137;-70
2023/05/13 09:47:01;;;;;;;6.78;6.07;;;;;;;-146.18;100.00;67994.34;10227895;28;20053;-70
2023/05/13 09:51:58;;;;;;;7.20;6.50;;;;;;;-146.18;100.00;67994.34;10210715;28;20543;-70
2023/05/13 09:56:57;;;;;;;9.15;7.47;;;;;;;-146.18;100.00;67994.34;10224516;28;20072;-70
2023/05/13 10:02:03;;;;;;;7.90;7.10;;;;;;;-146.18;100.00;67994.34;10216931;28;20104;-71
2023/05/13 10:07:02;;;;;;;11.73;7.15;;;;;;;-146.18;100.00;67994.34;10225083;28;20079;-70
2023/05/13 10:12:00;;;;;;;12.05;7.35;;;;;;;-146.18;100.00;67994.34;10200291;28;20050;-70
2023/05/13 10:16:57;;;;;;;10.02;6.68;;;;;;;-146.18;100.00;67994.34;10223925;28;20137;-70
2023/05/13 10:21:56;;;;;;;11.05;7.35;;;;;;;-146.18;100.00;67994.34;10194220;28;20054;-70
2023/05/13 10:26:52;;;;;;;8.30;7.38;;;;;;;-146.18;100.00;67994.34;10213463;28;20045;-70
2023/05/13 10:31:49;;;;;;;11.43;6.97;;;;;;;-146.18;100.00;67994.34;10192448;28;20082;-70
2023/05/13 10:37:24;;;;;;;10.18;7.38;;;;;;;-146.18;100.00;67994.34;10206564;28;20077;-70
2023/05/13 10:42:38;;;;;;;8.23;6.75;;;;;;;-146.18;100.00;67994.34;10192859;28;20076;-70
2023/05/13 10:47:35;;;;;;;8.07;7.28;;;;;;;-146.18;100.00;67994.34;10211569;28;20050;-70
2023/05/13 10:52:45;;;;;;;8.60;7.78;;;;;;;-146.18;100.00;67994.34;10232482;28;20053;-69
2023/05/13 10:58:02;;;;;;;7.68;6.95;;;;;;;-146.18;100.00;67994.34;10229280;28;20568;-70
2023/05/13 11:03:17;;;;;;;13.65;7.68;;;;;;;-146.18;100.00;67994.34;10228086;28;20046;-70
2023/05/13 11:08:42;;;;;;;8.02;7.43;;;;;;;-146.18;100.00;67994.34;10232089;28;20053;-69
2023/05/13 11:13:38;;;;;;;11.98;7.15;;;;;;;-146.18;100.00;67994.34;10205525;28;20104;-70
2023/05/13 11:18:35;;;;;;;7.97;7.28;;;;;;;-146.18;100.00;67994.34;10199876;28;20073;-70
2023/05/13 11:23:48;;;;;;;8.18;7.47;;;;;;;-146.18;100.00;67994.34;10196076;28;20049;-70
2023/05/13 11:28:57;;;;;;;8.65;7.40;;;;;;;-146.18;100.00;67994.34;10231519;28;20547;-70
2023/05/13 11:34:13;;;;;;;7.50;6.80;;;;;;;-146.18;100.00;67994.34;10203398;28;20419;-69
2023/05/13 11:39:18;;;;;;;7.97;7.28;;;;;;;-146.18;100.00;67994.34;10238376;28;20045;-70
2023/05/13 11:44:16;;;;;;;8.00;6.72;;;;;;;-146.18;100.00;67994.34;10220263;28;20056;-70
2023/05/13 11:49:38;;;;;;;10.00;6.88;;;;;;;-146.18;100.00;67994.34;10238015;28;20471;-70
2023/05/13 11:54:54;;;;;;;10.55;6.90;;;;;;;-146.18;100.00;67994.34;10238352;28;20439;-70
2023/05/13 12:00:05;;;;;;;7.93;7.22;;;;;;;-146.18;100.00;67994.34;10203707;28;20042;-70
2023/05/13 12:05:04;;;;;;;9.68;7.75;;;;;;;-146.18;100.00;67994.34;10213679;28;20053;-70
2023/05/13 12:10:03;;;;;;;7.53;6.85;;;;;;;-146.18;100.00;67994.34;10219188;28;20058;-70
2023/05/13 12:15:02;;;;;;;8.93;6.90;;;;;;;-146.18;100.00;67994.34;10213273;28;20120;-70
2023/05/13 12:20:07;;;;;;;7.38;6.45;;;;;;;-146.18;100.00;67994.34;10218321;28;20865;-70
2023/05/13 12:25:46;;;;;;;7.53;6.85;;;;;;;-146.18;100.00;67994.34;10211714;28;20056;-70
2023/05/13 12:30:52;;;;;;;7.15;6.40;;;;;;;-146.18;100.00;67994.34;10203208;28;20045;-70
2023/05/13 12:35:54;;;;;;;9.20;6.60;;;;;;;-146.18;100.00;67994.34;10213333;28;20046;-70
2023/05/13 12:40:51;;;;;;;7.90;6.72;;;;;;;-146.18;100.00;67994.34;10196570;28;20129;-70
2023/05/13 12:45:55;;;;;;;7.68;6.88;;;;;;;-146.18;100.00;67994.34;10206537;28;20578;-70
2023/05/13 12:50:51;;;;;;;10.73;6.80;;;;;;;-146.18;100.00;67994.34;10196062;28;20504;-70
2023/05/13 12:55:48;;;;;;;8.95;6.43;;;;;;;-146.18;100.00;67994.34;10206158;28;20504;-70
2023/05/13 13:00:44;;;;;;;8.52;6.53;;;;;;;-146.18;100.00;67994.34;10195361;28;20054;-70
2023/05/13 13:05:41;;;;;;;6.68;6.05;;;;;;;-146.18;100.00;67994.34;10203165;28;20053;-70
2023/05/13 13:10:38;;;;;;;7.20;6.50;;;;;;;-146.18;100.00;67994.34;10195825;28;20045;-70
2023/05/13 13:15:34;;;;;;;8.27;6.60;;;;;;;-146.18;100.00;67994.34;10214875;28;20155;-69
2023/05/13 13:20:31;;;;;;;6.00;5.38;;;;;;;-146.18;100.00;67994.34;10235485;28;20128;-69
2023/05/13 13:25:27;;;;;;;6.88;6.22;;;;;;;-146.18;100.00;67994.34;10224415;28;20049;-70
2023/05/13 13:30:25;;;;;;;7.10;6.47;;;;;;;-146.18;100.00;67994.34;10233727;28;20181;-69
2023/05/13 13:35:21;;;;;;;9.18;6.03;;;;;;;-146.18;100.00;67994.34;10212965;28;20064;-70
2023/05/13 13:40:18;;;;;;;6.78;6.07;;;;;;;-146.18;100.00;67994.34;10217555;28;20566;-70
2023/05/13 13:45:15;;;;;;;9.05;6.40;;;;;;;-146.18;100.00;67994.34;10211939;28;20065;-70
2023/05/13 13:50:11;;;;;;;8.50;5.55;;;;;;;-146.18;100.00;67994.34;10217000;28;20060;-70
2023/05/13 13:55:10;;;;;;;6.45;5.85;;;;;;;-146.18;100.00;67994.34;10210494;28;20415;-70
2023/05/13 14:00:07;;;;;;;6.68;5.97;;;;;;;-146.18;100.00;67994.34;10202304;28;20492;-70
2023/05/13 14:05:04;;;;;;;8.73;6.25;;;;;;;-146.18;100.00;67994.34;10209356;28;20057;-70
2023/05/13 14:10:01;;;;;;;9.75;6.00;;;;;;;-146.18;100.00;67994.34;10197608;28;20054;-70
2023/05/13 14:14:57;;;;;;;6.20;5.60;;;;;;;-146.18;100.00;67994.34;10203636;28;20417;-70
2023/05/13 14:19:54;;;;;;;6.82;5.15;;;;;;;-146.18;100.00;67994.34;10192886;28;20050;-70
2023/05/13 14:24:51;;;;;;;6.88;5.45;;;;;;;-146.18;100.00;67994.34;10206976;28;20108;-70
2023/05/13 14:29:48;;;;;;;6.07;5.55;;;;;;;-146.18;100.00;67994.34;10232827;28;20507;-70
2023/05/13 14:34:45;;;;;;;6.90;6.20;;;;;;;-146.18;100.00;67994.34;10216191;28;20064;-69
2023/05/13 14:39:41;;;;;;;10.95;5.63;;;;;;;-146.18;100.00;67994.34;10229155;28;20609;-69
2023/05/13 14:44:40;;;;;;;6.35;5.75;;;;;;;-146.18;100.00;67994.34;10203630;28;20141;-70
2023/05/13 14:49:38;;;;;;;7.32;6.03;;;;;;;-146.18;100.00;67994.34;10209916;28;20053;-70
2023/05/13 14:54:36;;;;;;;6.35;5.85;;;;;;;-146.18;100.00;67994.34;10204339;28;20050;-70
2023/05/13 14:59:33;;;;;;;6.32;5.72;;;;;;;-146.18;100.00;67994.34;10209116;28;20059;-70
2023/05/13 15:04:29;;;;;;;7.32;6.63;;;;;;;-146.18;100.00;67994.34;10202400;28;20053;-70
2023/05/13 15:09:26;;;;;;;7.45;6.75;;;;;;;-146.18;100.00;67994.34;10217501;28;20053;-70
2023/05/13 15:14:24;;;;;;;8.18;6.80;;;;;;;-146.18;100.00;67994.34;10209788;28;20279;-70
2023/05/13 15:19:23;;;;;;;7.03;6.43;;;;;;;-146.18;100.00;67994.34;10182032;28;20716;-70
2023/05/13 15:24:19;;;;;;;7.03;6.32;;;;;;;-146.18;100.00;67994.34;10201426;28;20578;-70
2023/05/13 15:29:16;;;;;;;6.90;6.30;;;;;;;-146.18;100.00;67994.34;10198967;28;20073;-70
2023/05/13 15:34:12;;;;;;;6.57;6.07;;;;;;;-146.18;100.00;67994.34;10207923;28;20093;-70
2023/05/13 15:39:09;;;;;;;7.85;7.07;;;;;;;-146.18;100.00;67994.34;10220737;28;20091;-70
2023/05/13 15:44:06;;;;;;;7.10;6.50;;;;;;;-146.18;100.00;67994.34;10220757;28;20082;-70
2023/05/13 15:49:03;;;;;;;9.13;6.90;;;;;;;-146.18;100.00;67994.34;10236385;28;20050;-70
2023/05/13 15:53:59;;;;;;;7.03;6.43;;;;;;;-146.18;100.00;67994.34;10205678;28;20057;-70
2023/05/13 15:58:56;;;;;;;7.22;6.63;;;;;;;-146.18;100.00;67994.34;10232775;28;20046;-70
2023/05/13 16:03:52;;;;;;;7.25;6.50;;;;;;;-146.18;100.00;67994.34;10204203;28;20104;-70
2023/05/13 16:08:49;;;;;;;7.28;6.53;;;;;;;-146.18;100.00;67994.34;10224424;28;20049;-70
2023/05/13 16:13:45;;;;;;;7.40;6.75;;;;;;;-146.18;100.00;67994.34;10202881;28;20046;-70
2023/05/13 16:18:42;;;;;;;7.45;6.40;;;;;;;-146.18;100.00;67994.34;10212596;28;20415;-70
2023/05/13 16:23:38;;;;;;;9.13;6.85;;;;;;;-146.18;100.00;67994.34;10201631;28;20068;-70
2023/05/13 16:28:35;;;;;;;7.90;7.30;;;;;;;-146.18;100.00;67994.34;10198618;28;20508;-70
2023/05/13 16:33:32;;;;;;;9.15;7.05;;;;;;;-146.18;100.00;67994.34;10200106;28;20703;-70
2023/05/13 16:38:29;;;;;;;8.20;7.07;;;;;;;-146.18;100.00;67994.34;10237083;28;20045;-70
2023/05/13 16:43:25;;;;;;;7.65;6.78;;;;;;;-146.18;100.00;67994.34;10206446;28;20053;-70
2023/05/13 16:48:22;;;;;;;7.18;6.47;;;;;;;-146.18;100.00;67994.34;10236212;28;20463;-70
2023/05/13 16:53:21;;;;;;;7.10;6.53;;;;;;;-146.18;100.00;67994.34;10201037;28;20508;-70
2023/05/13 16:58:18;;;;;;;6.90;6.03;;;;;;;-146.18;100.00;67994.34;10224918;28;20089;-69
2023/05/13 17:03:15;;;;;;;7.00;6.40;;;;;;;-146.18;100.00;67994.34;10196910;28;20057;-70
2023/05/13 17:08:12;;;;;;;6.78;6.18;;;;;;;-146.18;100.00;67994.34;10208998;28;20046;-70
2023/05/13 17:13:08;;;;;;;7.32;6.72;;;;;;;-146.18;100.00;67994.34;10195717;28;20684;-70
2023/05/13 17:18:05;;;;;;;9.88;7.03;;;;;;;-146.18;100.00;67994.34;10205359;28;20070;-70
2023/05/13 17:23:01;;;;;;;7.47;6.78;;;;;;;-146.18;100.00;67994.34;10195194;28;20730;-69
2023/05/13 17:27:58;;;;;;;7.20;6.45;;;;;;;-146.18;100.00;67994.34;10193681;28;20058;-70
2023/05/13 17:32:57;;;;;;;7.05;5.97;;;;;;;-146.18;100.00;67994.34;10194161;28;20058;-70
2023/05/13 17:37:53;;;;;;;7.07;6.38;;;;;;;-146.18;100.00;67994.34;10232997;28;20507;-70
2023/05/13 17:42:50;;;;;;;7.10;6.40;;;;;;;-146.18;100.00;67994.34;10218495;28;20053;-70
2023/05/13 17:47:48;;;;;;;7.35;6.40;;;;;;;-146.18;100.00;67994.34;10232347;28;20096;-70
2023/05/13 17:52:44;;;;;;;8.35;6.15;;;;;;;-146.18;100.00;67994.34;10203964;28;20520;-70
2023/05/13 17:57:41;;;;;;;7.93;6.22;;;;;;;-146.18;100.00;67994.34;10210951;28;20136;-70
2023/05/13 18:02:39;;;;;;;7.20;6.43;;;;;;;-146.18;100.00;67994.34;10193270;28;20100;-70
2023/05/13 18:07:35;;;;;;;8.82;6.70;;;;;;;-146.18;100.00;67994.34;10209457;28;20103;-70
2023/05/13 18:12:32;;;;;;;7.40;6.18;;;;;;;-146.18;100.00;67994.34;10192783;28;20123;-70
2023/05/13 18:17:31;;;;;;;7.32;6.60;;;;;;;-146.18;100.00;67994.34;10210698;28;20522;-70
2023/05/13 18:22:28;;;;;;;7.22;6.40;;;;;;;-146.18;100.00;67994.34;10192991;28;20520;-70
2023/05/13 18:27:24;;;;;;;9.57;6.55;;;;;;;-146.18;100.00;67994.34;10209520;28;20053;-70
2023/05/13 18:32:21;;;;;;;7.13;5.80;;;;;;;-146.18;100.00;67994.34;10193285;28;20140;-71
2023/05/13 18:37:17;;;;;;;7.82;5.43;;;;;;;-146.18;100.00;67994.34;10213595;28;20050;-70
2023/05/13 18:42:16;;;;;;;6.90;5.20;;;;;;;-146.18;100.00;67994.34;10230558;28;20065;-70
2023/05/13 18:47:12;;;;;;;9.63;6.32;;;;;;;-146.18;100.00;67994.34;10233900;28;20095;-70
2023/05/13 18:52:09;;;;;;;6.70;6.10;;;;;;;-146.18;100.00;67994.34;10225993;28;20053;-70
2023/05/13 18:57:06;;;;;;;13.13;6.60;;;;;;;-146.18;100.00;67994.34;10233120;28;20132;-70
2023/05/13 19:02:02;;;;;;;10.13;6.80;;;;;;;-146.18;100.00;67994.34;10239263;28;20046;-70
2023/05/13 19:06:59;;;;;;;7.55;6.18;;;;;;;-146.18;100.00;67994.34;10240312;28;20474;-70
2023/05/13 19:11:56;;;;;;;6.30;5.68;;;;;;;-146.18;100.00;67994.34;10201574;28;20050;-72
2023/05/13 19:16:53;;;;;;;8.57;7.28;;;;;;;-146.18;100.00;67994.34;10229104;28;20050;-70
2023/05/13 19:21:50;;;;;;;10.65;7.07;;;;;;;-146.18;100.00;67994.34;10198989;28;20054;-71
2023/05/13 19:26:46;;;;;;;14.75;6.70;;;;;;;-146.18;100.00;67994.34;10217308;28;20438;-70
2023/05/13 19:31:42;;;;;;;6.72;6.05;;;;;;;-146.18;100.00;67994.34;10199456;28;20057;-70
2023/05/13 19:36:39;;;;;;;11.82;6.43;;;;;;;-146.18;100.00;67994.34;10202399;28;20457;-72
2023/05/13 19:41:36;;;;;;;9.85;6.30;;;;;;;-146.18;100.00;67994.34;10198910;28;20053;-70
2023/05/13 19:46:33;;;;;;;9.90;6.72;;;;;;;-146.18;100.00;67994.34;10238006;28;20060;-70
2023/05/13 19:51:29;;;;;;;7.03;5.82;;;;;;;-146.18;100.00;67994.34;10218850;28;20069;-70
2023/05/13 19:56:26;;;;;;;7.35;6.47;;;;;;;-146.18;100.00;67994.34;10224949;28;20084;-70
2023/05/13 20:01:23;;;;;;;10.98;7.50;;;;;;;-146.18;100.00;67994.34;10207823;28;20133;-70
2023/05/13 20:06:20;;;;;;;9.20;7.35;;;;;;;-146.18;100.00;67994.34;10224464;28;20064;-71
2023/05/13 20:11:17;;;;;;;9.60;7.30;;;;;;;-146.18;100.00;67994.34;10202587;28;20065;-70
2023/05/13 20:16:13;;;;;;;8.70;6.40;;;;;;;-146.18;100.00;67994.34;10222923;28;20065;-70
2023/05/13 20:21:09;;;;;;;10.30;5.85;;;;;;;-146.18;100.00;67994.34;10195572;28;20065;-70
2023/05/13 20:26:07;;;;;;;9.45;6.20;;;;;;;-146.18;100.00;67994.34;10210967;28;20050;-70
2023/05/13 20:31:03;;;;;;;7.72;6.85;;;;;;;-146.18;100.00;67994.34;10196632;28;20046;-70
2023/05/13 20:36:00;;;;;;;6.95;5.97;;;;;;;-146.18;100.00;67994.34;10208070;28;20108;-70
2023/05/13 20:40:56;;;;;;;7.05;6.10;;;;;;;-146.18;100.00;67994.34;10196556;28;20054;-70
2023/05/13 20:45:52;;;;;;;9.07;6.07;;;;;;;-146.18;100.00;67994.34;10195665;28;20464;-70
2023/05/13 20:50:57;;;;;;;6.68;5.97;;;;;;;-146.18;100.00;67994.34;10178513;28;20411;-71
2023/05/13 20:55:53;;;;;;;7.97;6.10;;;;;;;-146.18;100.00;67994.34;10218669;28;20529;-70
2023/05/13 21:00:50;;;;;;;9.48;6.65;;;;;;;-146.18;100.00;67994.34;10221530;28;20077;-71
2023/05/13 21:05:46;;;;;;;9.07;6.10;;;;;;;-146.18;100.00;67994.34;10216629;28;20514;-71
2023/05/13 21:10:43;;;;;;;9.27;6.25;;;;;;;-146.18;100.00;67994.34;10221531;28;20045;-71
2023/05/13 21:15:39;;;;;;;6.43;5.72;;;;;;;-146.18;100.00;67994.34;10207827;28;20150;-70
2023/05/13 21:20:36;;;;;;;12.70;6.35;;;;;;;-146.18;100.00;67994.34;10195308;28;20049;-71
2023/05/13 21:25:32;;;;;;;7.63;6.25;;;;;;;-146.18;100.00;67994.34;10203112;28;20080;-71
2023/05/13 21:30:32;;;;;;;7.78;6.57;;;;;;;-146.18;100.00;67994.34;10194167;28;20056;-70
2023/05/13 21:35:28;;;;;;;8.95;6.68;;;;;;;-146.18;100.00;67994.34;10196158;28;20132;-71
2023/05/13 21:40:25;;;;;;;13.10;6.97;;;;;;;-146.18;100.00;67994.34;10194500;28;20050;-70
2023/05/13 21:45:24;;;;;;;6.45;5.72;;;;;;;-146.18;100.00;67994.34;10211332;28;20059;-70
2023/05/13 21:50:20;;;;;;;8.23;6.82;;;;;;;-146.18;100.00;67994.34;10234212;28;20057;-71
2023/05/13 21:55:17;;;;;;;6.97;5.93;;;;;;;-146.18;100.00;67994.34;10214182;28;20060;-71
2023/05/13 22:00:17;;;;;;;6.85;5.57;;;;;;;-146.18;100.00;67994.34;10202960;28;20054;-71
2023/05/13 22:05:14;;;;;;;7.10;5.00;;;;;;;-146.18;100.00;67994.34;10210831;28;20103;-70
2023/05/13 22:10:10;;;;;;;9.07;5.90;;;;;;;-146.18;100.00;67994.34;10211732;28;20046;-71